< < Back
Terminal Aerodrome Forecast


Current Version              Previous Versions:   1  2  3  4  5  6  7  8  9  

Terminal Aerodrome Forecast

096
FTUS42 KTAE 212300
TAFVLD
TAF
KVLD 212328Z 2200/2224 VRB03KT P6SM FEW080
      TEMPO 2209/2213 5SM BR
     FM221400 35005KT P6SM SCT050=

Latest METAR

178
SAUS70 KWBC 220200 RRN
MTRVLD
METAR KVLD 220153Z 00000KT 10SM CLR 26/22 A3010 RMK AO2 RAE02 SLP198
P0000 T02610217


USA.gov is the U.S. government's official web portal to all federal, state and local government web resources and services.